Time,TemperatureF,DewpointF,PressureIn,WindDirection,WindDirectionDegrees,WindSpeedMPH,WindSpeedGustMPH,Humidity,HourlyPrecipIn,Conditions,Clouds,dailyrainin,SoftwareType,DateUTC
2013-07-01 00:01:00,64.4,60.5,30.02,NNE,31,0.0,0.0,87,0.00,,CLR,0.00,VWS V14.01,2013-07-01 07:01:00,
2013-07-01 00:06:00,64.2,60.3,30.02,NNE,31,0.0,0.0,87,0.00,,CLR,0.00,VWS V14.01,2013-07-01 07:06:00,
2013-07-01 00:11:00,64.2,60.3,30.02,NNE,31,0.0,0.0,87,0.00,,CLR,0.00,VWS V14.01,2013-07-01 07:11:00,
2013-07-01 00:16:00,64.1,60.2,30.02,NNE,32,0.0,0.0,87,0.00,,CLR,0.00,VWS V14.01,2013-07-01 07:16:00,
2013-07-01 00:21:00,64.1,60.5,30.02,NNE,31,0.0,0.0,88,0.00,,CLR,0.00,VWS V14.01,2013-07-01 07:21:00,
2013-07-01 00:26:00,64.1,60.5,30.02,NNE,31,0.0,0.0,88,0.00,,CLR,0.00,VWS V14.01,2013-07-01 07:26:00,
2013-07-01 00:31:00,64.1,60.8,30.02,NNE,31,0.0,0.0,89,0.00,,CLR,0.00,VWS V14.01,2013-07-01 07:31:00,
2013-07-01 00:36:00,63.9,60.6,30.02,NNE,31,0.0,0.0,89,0.00,,CLR,0.00,VWS V14.01,2013-07-01 07:36:00,
2013-07-01 00:41:00,63.7,60.4,30.02,NNE,31,0.0,0.0,89,0.00,,CLR,0.00,VWS V14.01,2013-07-01 07:41:00,
2013-07-01 00:47:00,63.7,60.7,30.02,NNE,32,0.0,0.0,90,0.00,,CLR,0.00,VWS V14.01,2013-07-01 07:47:00,
2013-07-01 00:52:00,63.9,60.9,30.01,NNE,31,0.0,0.0,90,0.00,,CLR,0.00,VWS V14.01,2013-07-01 07:52:00,
2013-07-01 00:57:00,63.7,60.7,30.01,NNE,31,0.0,0.0,90,0.00,,CLR,0.00,VWS V14.01,2013-07-01 07:57:00,
2013-07-01 01:02:00,63.7,60.7,30.02,NNE,31,0.0,0.0,90,0.00,,CLR,0.00,VWS V14.01,2013-07-01 08:02:00,
2013-07-01 01:07:00,63.7,60.7,30.02,NNE,31,0.0,0.0,90,0.00,,CLR,0.00,VWS V14.01,2013-07-01 08:07:00,
2013-07-01 01:12:00,63.9,60.9,30.02,NNE,31,0.0,0.0,90,0.00,,CLR,0.00,VWS V14.01,2013-07-01 08:12:00,
2013-07-01 01:17:00,63.9,60.9,30.02,NNE,31,0.0,0.0,90,0.00,,CLR,0.00,VWS V14.01,2013-07-01 08:17:00,
2013-07-01 01:23:00,63.7,60.4,30.02,NNE,31,0.0,0.0,89,0.00,,CLR,0.00,VWS V14.01,2013-07-01 08:23:00,
2013-07-01 01:28:00,63.6,60.3,30.02,NNE,31,0.0,0.0,89,0.00,,CLR,0.00,VWS V14.01,2013-07-01 08:28:00,
2013-07-01 01:33:00,63.4,60.1,30.02,NNE,31,0.0,0.0,89,0.00,,CLR,0.00,VWS V14.01,2013-07-01 08:33:00,
2013-07-01 01:38:00,63.3,60.0,30.02,NNE,31,0.0,0.0,89,0.00,,CLR,0.00,VWS V14.01,2013-07-01 08:38:00,
2013-07-01 01:43:00,63.3,60.0,30.02,NNE,31,0.0,0.0,89,0.00,,CLR,0.00,VWS V14.01,2013-07-01 08:43:00,
2013-07-01 01:48:00,63.1,59.8,30.02,NNE,31,0.0,0.0,89,0.00,,CLR,0.00,VWS V14.01,2013-07-01 08:48:00,
2013-07-01 01:54:00,62.8,59.5,30.02,NNE,31,0.0,0.0,89,0.00,,CLR,0.00,VWS V14.01,2013-07-01 08:54:00,
2013-07-01 01:59:00,62.6,59.6,30.02,NNE,31,0.0,0.0,90,0.00,,CLR,0.00,VWS V14.01,2013-07-01 08:59:00,
2013-07-01 02:04:00,62.5,59.5,30.02,NNE,31,0.0,0.0,90,0.00,,CLR,0.00,VWS V14.01,2013-07-01 09:04:00,
2013-07-01 02:09:00,62.2,59.2,30.02,NNE,31,0.0,0.0,90,0.00,,CLR,0.00,VWS V14.01,2013-07-01 09:09:00,
2013-07-01 02:14:00,62.0,59.0,30.02,NNE,31,0.0,0.0,90,0.00,,CLR,0.00,VWS V14.01,2013-07-01 09:14:00,
2013-07-01 02:19:00,61.9,58.9,30.01,NNE,32,0.0,0.0,90,0.00,,CLR,0.00,VWS V14.01,2013-07-01 09:19:00,
2013-07-01 02:24:00,61.7,58.7,30.01,NNE,31,0.0,0.0,90,0.00,,CLR,0.00,VWS V14.01,2013-07-01 09:24:00,
2013-07-01 02:29:00,61.7,58.7,30.01,NNE,31,0.0,0.0,90,0.00,,CLR,0.00,VWS V14.01,2013-07-01 09:29:00,
2013-07-01 02:34:00,61.7,58.7,30.01,NNE,31,0.0,0.0,90,0.00,,CLR,0.00,VWS V14.01,2013-07-01 09:34:00,
2013-07-01 02:39:00,61.7,58.7,30.01,NNE,31,0.0,0.0,90,0.00,,CLR,0.00,VWS V14.01,2013-07-01 09:39:00,
2013-07-01 02:44:00,62.2,59.2,30.01,NNE,31,0.0,0.0,90,0.00,,CLR,0.00,VWS V14.01,2013-07-01 09:44:00,
2013-07-01 02:50:00,62.6,59.6,30.02,NNE,31,0.0,0.0,90,0.00,,CLR,0.00,VWS V14.01,2013-07-01 09:50:00,
2013-07-01 02:55:00,62.8,59.8,30.02,NNE,31,0.0,0.0,90,0.00,,CLR,0.00,VWS V14.01,2013-07-01 09:55:00,
2013-07-01 03:00:00,63.3,60.3,30.02,NNE,31,0.0,0.0,90,0.00,,CLR,0.00,VWS V14.01,2013-07-01 10:00:00,
2013-07-01 03:05:00,63.6,60.0,30.02,NNE,31,0.0,0.0,88,0.00,,CLR,0.00,VWS V14.01,2013-07-01 10:05:00,
2013-07-01 03:10:00,63.7,59.8,30.02,NNE,31,0.0,0.0,87,0.00,,CLR,0.00,VWS V14.01,2013-07-01 10:10:00,
2013-07-01 03:15:00,63.9,59.6,30.02,NNE,31,0.0,0.0,86,0.00,,CLR,0.00,VWS V14.01,2013-07-01 10:15:00,
2013-07-01 03:20:00,64.1,59.8,30.02,NNE,31,0.0,0.0,86,0.00,,CLR,0.00,VWS V14.01,2013-07-01 10:20:00,
2013-07-01 03:25:00,64.2,59.9,30.02,NNE,31,0.0,0.0,86,0.00,,CLR,0.00,VWS V14.01,2013-07-01 10:25:00,
2013-07-01 03:30:00,64.2,59.9,30.02,NNE,31,0.0,0.0,86,0.00,,CLR,0.00,VWS V14.01,2013-07-01 10:30:00,
2013-07-01 03:35:00,64.4,59.8,30.02,NNE,31,0.0,0.0,85,0.00,,CLR,0.00,VWS V14.01,2013-07-01 10:35:00,
2013-07-01 03:40:00,64.4,59.8,30.02,NNE,31,0.0,0.0,85,0.00,,CLR,0.00,VWS V14.01,2013-07-01 10:40:00,
2013-07-01 03:46:00,64.4,59.8,30.02,NNE,31,0.0,0.0,85,0.00,,CLR,0.00,VWS V14.01,2013-07-01 10:46:00,
2013-07-01 03:51:00,64.2,59.6,30.02,NNE,31,0.0,0.0,85,0.00,,CLR,0.00,VWS V14.01,2013-07-01 10:51:00,
2013-07-01 03:56:00,64.2,59.6,30.02,NNE,31,0.0,0.0,85,0.00,,CLR,0.00,VWS V14.01,2013-07-01 10:56:00,
2013-07-01 04:01:00,64.2,59.6,30.02,NNE,31,0.0,0.0,85,0.00,,CLR,0.00,VWS V14.01,2013-07-01 11:01:00,
2013-07-01 04:06:00,64.2,59.6,30.02,NNE,31,0.0,0.0,85,0.00,,CLR,0.00,VWS V14.01,2013-07-01 11:06:00,
2013-07-01 04:11:00,64.4,59.8,30.02,NNE,31,0.0,0.0,85,0.00,,CLR,0.00,VWS V14.01,2013-07-01 11:11:00,
2013-07-01 04:16:00,64.4,59.8,30.02,NNE,31,0.0,0.0,85,0.00,,CLR,0.00,VWS V14.01,2013-07-01 11:16:00,
2013-07-01 04:21:00,64.4,59.5,30.02,NNE,31,0.0,0.0,84,0.00,,CLR,0.00,VWS V14.01,2013-07-01 11:21:00,
2013-07-01 04:26:00,64.4,59.5,30.02,NNE,31,0.0,0.0,84,0.00,,CLR,0.00,VWS V14.01,2013-07-01 11:26:00,
2013-07-01 04:31:00,64.4,59.5,30.02,NNE,31,0.0,0.0,84,0.00,,CLR,0.00,VWS V14.01,2013-07-01 11:31:00,
2013-07-01 04:37:00,64.4,59.5,30.02,NNE,31,0.0,0.0,84,0.00,,CLR,0.00,VWS V14.01,2013-07-01 11:37:00,
2013-07-01 04:42:00,64.2,59.3,30.02,NNE,31,0.0,0.0,84,0.00,,CLR,0.00,VWS V14.01,2013-07-01 11:42:00,
2013-07-01 04:47:00,64.2,59.3,30.02,NNE,31,0.0,0.0,84,0.00,,CLR,0.00,VWS V14.01,2013-07-01 11:47:00,
2013-07-01 04:52:00,64.2,59.3,30.03,NNE,31,0.0,0.0,84,0.00,,CLR,0.00,VWS V14.01,2013-07-01 11:52:00,
2013-07-01 04:57:00,64.2,59.3,30.03,NNE,31,0.0,0.0,84,0.00,,CLR,0.00,VWS V14.01,2013-07-01 11:57:00,
2013-07-01 05:02:00,64.4,59.5,30.03,ENE,64,0.0,0.0,84,0.00,,CLR,0.00,VWS V14.01,2013-07-01 12:02:00,
2013-07-01 05:07:00,64.4,59.5,30.03,ENE,64,0.0,0.0,84,0.00,,CLR,0.00,VWS V14.01,2013-07-01 12:07:00,
2013-07-01 05:12:00,64.4,59.5,30.03,ENE,64,0.0,0.0,84,0.00,,CLR,0.00,VWS V14.01,2013-07-01 12:12:00,
2013-07-01 05:18:00,64.4,59.5,30.03,ENE,64,0.0,0.0,84,0.00,,CLR,0.00,VWS V14.01,2013-07-01 12:18:00,
2013-07-01 05:23:00,64.4,59.5,30.03,ENE,65,0.0,0.0,84,0.00,,CLR,0.00,VWS V14.01,2013-07-01 12:23:00,
2013-07-01 05:28:00,64.5,59.6,30.03,ENE,65,0.0,0.0,84,0.00,,CLR,0.00,VWS V14.01,2013-07-01 12:28:00,
2013-07-01 05:33:00,64.5,59.6,30.03,ENE,65,0.0,0.0,84,0.00,,CLR,0.00,VWS V14.01,2013-07-01 12:33:00,
2013-07-01 05:38:00,64.9,60.0,30.03,ENE,65,0.0,0.0,84,0.00,,CLR,0.00,VWS V14.01,2013-07-01 12:38:00,
2013-07-01 05:43:00,65.2,60.2,30.03,ESE,102,0.0,0.0,84,0.00,,CLR,0.00,VWS V14.01,2013-07-01 12:43:00,
2013-07-01 05:48:00,65.5,60.5,30.03,ESE,102,0.0,0.0,84,0.00,,CLR,0.00,VWS V14.01,2013-07-01 12:48:00,
2013-07-01 05:53:00,65.8,60.8,30.03,ESE,102,0.0,0.0,84,0.00,,CLR,0.00,VWS V14.01,2013-07-01 12:53:00,
2013-07-01 05:58:00,66.0,60.3,30.03,ESE,102,0.0,0.0,82,0.00,,CLR,0.00,VWS V14.01,2013-07-01 12:58:00,
2013-07-01 06:04:00,66.0,60.3,30.03,ESE,102,0.0,0.0,82,0.00,,CLR,0.00,VWS V14.01,2013-07-01 13:04:00,
2013-07-01 06:08:00,66.5,60.8,30.03,ESE,102,0.0,0.0,82,0.00,,CLR,0.00,VWS V14.01,2013-07-01 13:08:00,
2013-07-01 06:14:00,67.1,61.4,30.03,ESE,102,0.0,0.0,82,0.00,,CLR,0.00,VWS V14.01,2013-07-01 13:14:00,
2013-07-01 06:19:00,67.1,61.4,30.03,ESE,102,0.0,0.0,82,0.00,,CLR,0.00,VWS V14.01,2013-07-01 13:19:00,
2013-07-01 06:24:00,67.8,61.4,30.03,ESE,102,0.0,0.0,80,0.00,,CLR,0.00,VWS V14.01,2013-07-01 13:24:00,
2013-07-01 06:29:00,67.8,61.4,30.03,ESE,102,0.0,0.0,80,0.00,,CLR,0.00,VWS V14.01,2013-07-01 13:29:00,
2013-07-01 06:34:00,67.6,60.9,30.04,ESE,102,0.0,0.0,79,0.00,,CLR,0.00,VWS V14.01,2013-07-01 13:34:00,
2013-07-01 06:39:00,67.3,60.6,30.04,ESE,102,0.0,0.0,79,0.00,,CLR,0.00,VWS V14.01,2013-07-01 13:39:00,
2013-07-01 06:44:00,67.3,61.3,30.04,ESE,102,0.0,0.0,81,0.00,,CLR,0.00,VWS V14.01,2013-07-01 13:44:00,
2013-07-01 06:49:00,67.6,61.6,30.03,ESE,102,0.0,0.0,81,0.00,,CLR,0.00,VWS V14.01,2013-07-01 13:49:00,
2013-07-01 06:54:00,68.1,62.1,30.03,ESE,102,0.0,0.0,81,0.00,,CLR,0.00,VWS V14.01,2013-07-01 13:54:00,
2013-07-01 07:00:00,68.6,61.5,30.03,ESE,102,0.0,0.0,78,0.00,,CLR,0.00,VWS V14.01,2013-07-01 14:00:00,
2013-07-01 07:05:00,69.9,62.7,30.04,ESE,102,0.0,0.0,78,0.00,,CLR,0.00,VWS V14.01,2013-07-01 14:05:00,
2013-07-01 07:10:00,70.4,62.5,30.04,ESE,102,0.0,0.0,76,0.00,,CLR,0.00,VWS V14.01,2013-07-01 14:10:00,
2013-07-01 07:15:00,70.4,62.5,30.04,ESE,102,0.0,0.0,76,0.00,,CLR,0.00,VWS V14.01,2013-07-01 14:15:00,
2013-07-01 07:20:00,71.9,63.2,30.03,ESE,102,1.0,1.0,74,0.00,,CLR,0.00,VWS V14.01,2013-07-01 14:20:00,
2013-07-01 07:25:00,72.6,63.8,30.03,ESE,102,0.0,0.0,74,0.00,,CLR,0.00,VWS V14.01,2013-07-01 14:25:00,
2013-07-01 07:30:00,72.8,64.0,30.03,East,100,0.0,0.0,74,0.00,,CLR,0.00,VWS V14.01,2013-07-01 14:30:00,
2013-07-01 07:35:00,73.7,64.9,30.03,SE,134,0.0,0.0,74,0.00,,CLR,0.00,VWS V14.01,2013-07-01 14:35:00,
2013-07-01 07:40:00,74.2,65.4,30.03,East,93,0.0,0.0,74,0.00,,CLR,0.00,VWS V14.01,2013-07-01 14:40:00,
2013-07-01 07:45:00,74.7,65.9,30.03,ESE,102,0.0,0.0,74,0.00,,CLR,0.00,VWS V14.01,2013-07-01 14:45:00,
2013-07-01 07:50:00,74.7,65.9,30.03,ESE,109,2.0,2.0,74,0.00,,CLR,0.00,VWS V14.01,2013-07-01 14:50:00,
2013-07-01 07:55:00,75.0,66.2,30.03,ESE,106,1.0,1.0,74,0.00,,CLR,0.00,VWS V14.01,2013-07-01 14:55:00,
2013-07-01 08:00:00,75.2,66.3,30.03,ESE,119,1.0,1.0,74,0.00,,CLR,0.00,VWS V14.01,2013-07-01 15:00:00,
2013-07-01 08:05:00,75.6,66.7,30.03,ESE,109,3.0,3.0,74,0.00,,CLR,0.00,VWS V14.01,2013-07-01 15:05:00,
2013-07-01 08:11:00,75.9,61.0,30.03,East,93,0.0,1.0,60,0.00,,CLR,0.00,VWS V14.01,2013-07-01 15:11:00,
2013-07-01 08:16:00,76.3,61.4,30.03,East,96,1.0,1.0,60,0.00,,CLR,0.00,VWS V14.01,2013-07-01 15:16:00,
2013-07-01 08:21:00,76.4,61.5,30.03,East,93,3.0,3.0,60,0.00,,CLR,0.00,VWS V14.01,2013-07-01 15:21:00,
2013-07-01 08:26:00,76.8,61.9,30.03,East,92,1.0,1.0,60,0.00,,CLR,0.00,VWS V14.01,2013-07-01 15:26:00,
2013-07-01 08:31:00,77.0,62.1,30.03,SE,137,0.0,2.0,60,0.00,,CLR,0.00,VWS V14.01,2013-07-01 15:31:00,
2013-07-01 08:36:00,77.1,62.2,30.03,East,89,1.0,1.0,60,0.00,,CLR,0.00,VWS V14.01,2013-07-01 15:36:00,
2013-07-01 08:41:00,77.3,62.3,30.03,East,92,1.0,1.0,60,0.00,,CLR,0.00,VWS V14.01,2013-07-01 15:41:00,
2013-07-01 08:46:00,77.8,62.8,30.03,East,88,0.0,1.0,60,0.00,,CLR,0.00,VWS V14.01,2013-07-01 15:46:00,
2013-07-01 08:51:00,78.2,62.7,30.03,East,88,1.0,5.0,59,0.00,,CLR,0.00,VWS V14.01,2013-07-01 15:51:00,
2013-07-01 08:56:00,78.4,62.9,30.03,ESE,103,6.0,6.0,59,0.00,,CLR,0.00,VWS V14.01,2013-07-01 15:56:00,
2013-07-01 09:01:00,78.6,62.1,30.03,East,86,2.0,3.0,57,0.00,,CLR,0.00,VWS V14.01,2013-07-01 16:01:00,
2013-07-01 09:06:00,78.7,62.2,30.03,East,83,2.0,2.0,57,0.00,,CLR,0.00,VWS V14.01,2013-07-01 16:06:00,
2013-07-01 09:11:00,78.9,62.9,30.03,East,95,3.0,6.0,58,0.00,,CLR,0.00,VWS V14.01,2013-07-01 16:11:00,
2013-07-01 09:16:00,78.9,62.9,30.03,East,95,1.0,2.0,58,0.00,,CLR,0.00,VWS V14.01,2013-07-01 16:16:00,
2013-07-01 09:21:00,79.6,63.5,30.02,East,97,1.0,1.0,58,0.00,,CLR,0.00,VWS V14.01,2013-07-01 16:21:00,
2013-07-01 09:26:00,79.6,63.5,30.02,East,80,0.0,0.0,58,0.00,,CLR,0.00,VWS V14.01,2013-07-01 16:26:00,
2013-07-01 09:31:00,80.2,64.1,30.02,East,93,0.0,0.0,58,0.00,,CLR,0.00,VWS V14.01,2013-07-01 16:31:00,
2013-07-01 09:36:00,80.2,64.1,30.02,East,90,1.0,1.0,58,0.00,,CLR,0.00,VWS V14.01,2013-07-01 16:36:00,
2013-07-01 09:41:00,80.9,64.8,30.02,ENE,72,2.0,2.0,58,0.00,,CLR,0.00,VWS V14.01,2013-07-01 16:41:00,
2013-07-01 09:47:00,81.5,66.3,30.02,East,96,1.0,1.0,60,0.00,,CLR,0.00,VWS V14.01,2013-07-01 16:47:00,
2013-07-01 09:52:00,81.9,65.2,30.03,East,99,1.0,1.0,57,0.00,,CLR,0.00,VWS V14.01,2013-07-01 16:52:00,
2013-07-01 09:57:00,81.9,65.2,30.03,East,99,1.0,1.0,57,0.00,,CLR,0.00,VWS V14.01,2013-07-01 16:57:00,
2013-07-01 10:02:00,81.9,65.2,30.03,East,97,0.0,0.0,57,0.00,,CLR,0.00,VWS V14.01,2013-07-01 17:02:00,
2013-07-01 10:07:00,82.6,65.8,30.03,East,80,2.0,2.0,57,0.00,,CLR,0.00,VWS V14.01,2013-07-01 17:07:00,
2013-07-01 10:12:00,82.8,66.0,30.03,East,80,0.0,0.0,57,0.00,,CLR,0.00,VWS V14.01,2013-07-01 17:12:00,
2013-07-01 10:17:00,82.8,66.0,30.03,East,88,0.0,0.0,57,0.00,,CLR,0.00,VWS V14.01,2013-07-01 17:17:00,
2013-07-01 10:22:00,82.8,63.9,30.02,East,82,0.0,0.0,53,0.00,,CLR,0.00,VWS V14.01,2013-07-01 17:22:00,
2013-07-01 10:27:00,83.6,64.7,30.02,East,88,0.0,2.0,53,0.00,,CLR,0.00,VWS V14.01,2013-07-01 17:27:00,
2013-07-01 10:32:00,83.8,64.3,30.03,East,85,3.0,3.0,52,0.00,,CLR,0.00,VWS V14.01,2013-07-01 17:32:00,
2013-07-01 10:37:00,84.2,64.7,30.03,East,83,3.0,3.0,52,0.00,,CLR,0.00,VWS V14.01,2013-07-01 17:37:00,
2013-07-01 10:42:00,84.4,65.9,30.03,East,89,1.0,1.0,54,0.00,,CLR,0.00,VWS V14.01,2013-07-01 17:42:00,
2013-07-01 10:47:00,85.3,66.2,30.03,East,92,2.0,2.0,53,0.00,,CLR,0.00,VWS V14.01,2013-07-01 17:47:00,
2013-07-01 10:52:00,85.7,66.6,30.03,East,82,3.0,3.0,53,0.00,,CLR,0.00,VWS V14.01,2013-07-01 17:52:00,
2013-07-01 10:58:00,85.7,66.6,30.03,East,79,3.0,3.0,53,0.00,,CLR,0.00,VWS V14.01,2013-07-01 17:58:00,
2013-07-01 11:03:00,85.9,66.8,30.02,East,97,1.0,1.0,53,0.00,,CLR,0.00,VWS V14.01,2013-07-01 18:03:00,
2013-07-01 11:08:00,85.9,66.8,30.02,East,90,2.0,2.0,53,0.00,,CLR,0.00,VWS V14.01,2013-07-01 18:08:00,
2013-07-01 11:13:00,85.9,66.8,30.02,East,95,3.0,3.0,53,0.00,,CLR,0.00,VWS V14.01,2013-07-01 18:13:00,
2013-07-01 11:18:00,85.9,66.8,30.02,East,97,1.0,1.0,53,0.00,,CLR,0.00,VWS V14.01,2013-07-01 18:18:00,
2013-07-01 11:23:00,85.9,66.8,30.02,East,80,2.0,2.0,53,0.00,,CLR,0.00,VWS V14.01,2013-07-01 18:23:00,
2013-07-01 11:28:00,86.9,67.7,30.02,East,82,0.0,1.0,53,0.00,,CLR,0.00,VWS V14.01,2013-07-01 18:28:00,
2013-07-01 11:33:00,87.3,68.1,30.01,ESE,102,2.0,3.0,53,0.00,,CLR,0.00,VWS V14.01,2013-07-01 18:33:00,
2013-07-01 11:38:00,87.3,68.1,30.01,East,92,2.0,5.0,53,0.00,,CLR,0.00,VWS V14.01,2013-07-01 18:38:00,
2013-07-01 11:44:00,87.5,66.6,30.01,East,92,1.0,1.0,50,0.00,,CLR,0.00,VWS V14.01,2013-07-01 18:44:00,
2013-07-01 11:49:00,87.7,67.3,30.01,ENE,76,0.0,0.0,51,0.00,,CLR,0.00,VWS V14.01,2013-07-01 18:49:00,
2013-07-01 11:54:00,88.2,67.8,30.01,ESE,109,0.0,3.0,51,0.00,,CLR,0.00,VWS V14.01,2013-07-01 18:54:00,
2013-07-01 11:59:00,88.8,68.4,30.01,NE,49,1.0,1.0,51,0.00,,CLR,0.00,VWS V14.01,2013-07-01 18:59:00,
2013-07-01 12:04:00,88.8,68.4,30.00,ESE,104,2.0,2.0,51,0.00,,CLR,0.00,VWS V14.01,2013-07-01 19:04:00,
2013-07-01 12:09:00,88.8,68.4,30.00,East,95,0.0,2.0,51,0.00,,CLR,0.00,VWS V14.01,2013-07-01 19:09:00,
2013-07-01 12:14:00,89.4,68.9,30.00,East,86,1.0,5.0,51,0.00,,CLR,0.00,VWS V14.01,2013-07-01 19:14:00,
2013-07-01 12:19:00,89.6,69.1,30.00,East,88,2.0,2.0,51,0.00,,CLR,0.00,VWS V14.01,2013-07-01 19:19:00,
2013-07-01 12:24:00,89.8,69.3,30.00,East,80,0.0,0.0,51,0.00,,CLR,0.00,VWS V14.01,2013-07-01 19:24:00,
2013-07-01 12:29:00,90.0,69.5,30.00,East,80,2.0,2.0,51,0.00,,CLR,0.00,VWS V14.01,2013-07-01 19:29:00,
2013-07-01 12:34:00,90.3,64.8,30.00,East,96,0.0,0.0,43,0.00,,CLR,0.00,VWS V14.01,2013-07-01 19:34:00,
2013-07-01 12:39:00,90.3,64.8,30.00,East,93,1.0,1.0,43,0.00,,CLR,0.00,VWS V14.01,2013-07-01 19:39:00,
2013-07-01 12:45:00,90.7,65.2,30.00,East,79,1.0,5.0,43,0.00,,CLR,0.00,VWS V14.01,2013-07-01 19:45:00,
2013-07-01 12:50:00,90.9,65.3,30.00,East,86,2.0,2.0,43,0.00,,CLR,0.00,VWS V14.01,2013-07-01 19:50:00,
2013-07-01 12:55:00,90.9,65.3,30.00,East,96,0.0,0.0,43,0.00,,CLR,0.00,VWS V14.01,2013-07-01 19:55:00,
2013-07-01 13:00:00,91.3,65.7,30.00,East,93,2.0,2.0,43,0.00,,CLR,0.00,VWS V14.01,2013-07-01 20:00:00,
2013-07-01 13:05:00,91.5,65.9,30.00,ESE,112,2.0,3.0,43,0.00,,CLR,0.00,VWS V14.01,2013-07-01 20:05:00,
2013-07-01 13:10:00,91.7,66.1,30.00,ESE,103,2.0,2.0,43,0.00,,CLR,0.00,VWS V14.01,2013-07-01 20:10:00,
2013-07-01 13:15:00,92.0,66.3,30.00,East,95,0.0,0.0,43,0.00,,CLR,0.00,VWS V14.01,2013-07-01 20:15:00,
2013-07-01 13:20:00,92.2,66.5,29.99,ENE,71,1.0,1.0,43,0.00,,CLR,0.00,VWS V14.01,2013-07-01 20:20:00,
2013-07-01 13:25:00,92.6,66.9,29.99,ENE,68,1.0,1.0,43,0.00,,CLR,0.00,VWS V14.01,2013-07-01 20:25:00,
2013-07-01 13:30:00,92.6,65.5,29.99,East,88,2.0,2.0,41,0.00,,CLR,0.00,VWS V14.01,2013-07-01 20:30:00,
2013-07-01 13:35:00,92.8,67.0,29.99,East,88,0.0,0.0,43,0.00,,CLR,0.00,VWS V14.01,2013-07-01 20:35:00,
2013-07-01 13:40:00,93.1,69.3,29.99,East,88,0.0,0.0,46,0.00,,CLR,0.00,VWS V14.01,2013-07-01 20:40:00,
2013-07-01 13:45:00,93.5,69.6,29.99,East,88,0.0,2.0,46,0.00,,CLR,0.00,VWS V14.01,2013-07-01 20:45:00,
2013-07-01 13:51:00,93.5,68.3,29.99,East,88,0.0,0.0,44,0.00,,CLR,0.00,VWS V14.01,2013-07-01 20:51:00,
2013-07-01 13:56:00,93.9,68.7,29.99,East,88,1.0,1.0,44,0.00,,CLR,0.00,VWS V14.01,2013-07-01 20:56:00,
2013-07-01 14:01:00,93.7,68.5,29.99,East,80,1.0,1.0,44,0.00,,CLR,0.00,VWS V14.01,2013-07-01 21:01:00,
2013-07-01 14:06:00,93.7,68.5,29.99,ESE,109,0.0,0.0,44,0.00,,CLR,0.00,VWS V14.01,2013-07-01 21:06:00,
2013-07-01 14:11:00,93.7,68.5,29.99,East,86,0.0,0.0,44,0.00,,CLR,0.00,VWS V14.01,2013-07-01 21:11:00,
2013-07-01 14:16:00,93.9,65.9,29.99,ESE,102,0.0,0.0,40,0.00,,CLR,0.00,VWS V14.01,2013-07-01 21:16:00,
2013-07-01 14:21:00,93.9,65.9,29.99,East,96,0.0,0.0,40,0.00,,CLR,0.00,VWS V14.01,2013-07-01 21:21:00,
2013-07-01 14:26:00,94.6,66.6,29.99,East,95,0.0,0.0,40,0.00,,CLR,0.00,VWS V14.01,2013-07-01 21:26:00,
2013-07-01 14:31:00,95.0,63.1,29.99,East,95,0.0,0.0,35,0.00,,CLR,0.00,VWS V14.01,2013-07-01 21:31:00,
2013-07-01 14:36:00,95.3,63.3,29.99,East,95,0.0,0.0,35,0.00,,CLR,0.00,VWS V14.01,2013-07-01 21:36:00,
2013-07-01 14:41:00,95.9,63.9,29.99,East,96,0.0,0.0,35,0.00,,CLR,0.00,VWS V14.01,2013-07-01 21:41:00,
2013-07-01 14:47:00,96.1,67.2,29.99,East,95,0.0,0.0,39,0.00,,CLR,0.00,VWS V14.01,2013-07-01 21:47:00,
2013-07-01 14:52:00,96.6,65.3,29.98,East,96,0.0,0.0,36,0.00,,CLR,0.00,VWS V14.01,2013-07-01 21:52:00,
2013-07-01 14:57:00,96.4,65.1,29.98,East,85,0.0,0.0,36,0.00,,CLR,0.00,VWS V14.01,2013-07-01 21:57:00,
2013-07-01 15:02:00,96.4,65.1,29.98,East,85,0.0,0.0,36,0.00,,CLR,0.00,VWS V14.01,2013-07-01 22:02:00,
2013-07-01 15:07:00,96.4,65.1,29.98,East,86,0.0,2.0,36,0.00,,CLR,0.00,VWS V14.01,2013-07-01 22:07:00,
2013-07-01 15:12:00,96.4,65.1,29.98,East,86,0.0,3.0,36,0.00,,CLR,0.00,VWS V14.01,2013-07-01 22:12:00,
2013-07-01 15:17:00,96.4,66.7,29.98,East,86,1.0,1.0,38,0.00,,CLR,0.00,VWS V14.01,2013-07-01 22:17:00,
2013-07-01 15:22:00,96.4,66.7,29.97,East,86,0.0,0.0,38,0.00,,CLR,0.00,VWS V14.01,2013-07-01 22:22:00,
2013-07-01 15:27:00,95.9,66.2,29.97,ENE,78,0.0,0.0,38,0.00,,CLR,0.00,VWS V14.01,2013-07-01 22:27:00,
2013-07-01 15:32:00,96.1,66.4,29.97,ENE,78,0.0,0.0,38,0.00,,CLR,0.00,VWS V14.01,2013-07-01 22:32:00,
2013-07-01 15:37:00,96.1,67.2,29.97,East,90,0.0,0.0,39,0.00,,CLR,0.00,VWS V14.01,2013-07-01 22:37:00,
2013-07-01 15:42:00,96.4,67.4,29.97,East,83,0.0,0.0,39,0.00,,CLR,0.00,VWS V14.01,2013-07-01 22:42:00,
2013-07-01 15:47:00,96.1,67.2,29.97,East,99,1.0,1.0,39,0.00,,CLR,0.00,VWS V14.01,2013-07-01 22:47:00,
2013-07-01 15:52:00,96.1,64.0,29.97,East,80,0.0,2.0,35,0.00,,CLR,0.00,VWS V14.01,2013-07-01 22:52:00,
2013-07-01 15:57:00,96.1,64.0,29.97,East,80,0.0,0.0,35,0.00,,CLR,0.00,VWS V14.01,2013-07-01 22:57:00,
2013-07-01 16:02:00,96.4,67.4,29.97,East,80,0.0,0.0,39,0.00,,CLR,0.00,VWS V14.01,2013-07-01 23:02:00,
2013-07-01 16:07:00,96.6,67.6,29.96,East,96,0.0,1.0,39,0.00,,CLR,0.00,VWS V14.01,2013-07-01 23:07:00,
2013-07-01 16:12:00,96.6,67.6,29.96,East,96,0.0,0.0,39,0.00,,CLR,0.00,VWS V14.01,2013-07-01 23:12:00,
2013-07-01 16:17:00,96.9,67.1,29.96,East,96,0.0,0.0,38,0.00,,CLR,0.00,VWS V14.01,2013-07-01 23:17:00,
2013-07-01 16:22:00,97.1,68.0,29.96,East,96,1.0,1.0,39,0.00,,CLR,0.00,VWS V14.01,2013-07-01 23:22:00,
2013-07-01 16:27:00,96.9,67.9,29.96,East,96,0.0,0.0,39,0.00,,CLR,0.00,VWS V14.01,2013-07-01 23:27:00,
2013-07-01 16:32:00,96.9,67.9,29.96,East,96,0.0,0.0,39,0.00,,CLR,0.00,VWS V14.01,2013-07-01 23:32:00,
2013-07-01 16:37:00,96.9,66.3,29.96,East,96,0.0,0.0,37,0.00,,CLR,0.00,VWS V14.01,2013-07-01 23:37:00,
2013-07-01 16:42:00,97.3,66.7,29.96,East,96,0.0,0.0,37,0.00,,CLR,0.00,VWS V14.01,2013-07-01 23:42:00,
2013-07-01 16:48:00,97.3,66.7,29.95,East,96,0.0,0.0,37,0.00,,CLR,0.00,VWS V14.01,2013-07-01 23:48:00,
2013-07-01 16:53:00,97.3,66.7,29.95,East,96,0.0,0.0,37,0.00,,CLR,0.00,VWS V14.01,2013-07-01 23:53:00,
2013-07-01 16:58:00,97.3,66.7,29.95,East,92,0.0,0.0,37,0.00,,CLR,0.00,VWS V14.01,2013-07-01 23:58:00,
2013-07-01 17:03:00,97.1,66.5,29.94,East,97,0.0,0.0,37,0.00,,CLR,0.00,VWS V14.01,2013-07-02 00:03:00,
2013-07-01 17:08:00,97.1,66.5,29.94,East,90,0.0,0.0,37,0.00,,CLR,0.00,VWS V14.01,2013-07-02 00:08:00,
2013-07-01 17:13:00,96.4,65.9,29.94,East,80,0.0,1.0,37,0.00,,CLR,0.00,VWS V14.01,2013-07-02 00:13:00,
2013-07-01 17:18:00,96.4,65.9,29.94,East,80,1.0,1.0,37,0.00,,CLR,0.00,VWS V14.01,2013-07-02 00:18:00,
2013-07-01 17:23:00,96.4,65.9,29.94,East,80,0.0,0.0,37,0.00,,CLR,0.00,VWS V14.01,2013-07-02 00:23:00,
2013-07-01 17:28:00,96.4,65.9,29.94,East,80,0.0,0.0,37,0.00,,CLR,0.00,VWS V14.01,2013-07-02 00:28:00,
2013-07-01 17:33:00,96.4,65.9,29.94,East,80,0.0,0.0,37,0.00,,CLR,0.00,VWS V14.01,2013-07-02 00:33:00,
2013-07-01 17:38:00,96.4,68.2,29.94,East,80,0.0,0.0,40,0.00,,CLR,0.00,VWS V14.01,2013-07-02 00:38:00,
2013-07-01 17:43:00,97.1,69.5,29.94,East,80,0.0,0.0,41,0.00,,CLR,0.00,VWS V14.01,2013-07-02 00:43:00,
2013-07-01 17:48:00,98.1,68.9,29.94,East,80,0.0,0.0,39,0.00,,CLR,0.00,VWS V14.01,2013-07-02 00:48:00,
2013-07-01 17:54:00,98.8,71.0,29.94,East,80,0.0,0.0,41,0.00,,CLR,0.00,VWS V14.01,2013-07-02 00:54:00,
2013-07-01 17:59:00,99.7,66.4,29.94,East,80,0.0,0.0,34,0.00,,CLR,0.00,VWS V14.01,2013-07-02 00:59:00,
2013-07-01 18:04:00,100.7,63.6,29.94,East,80,0.0,0.0,30,0.00,,CLR,0.00,VWS V14.01,2013-07-02 01:04:00,
2013-07-01 18:09:00,101.2,65.0,29.94,East,80,0.0,0.0,31,0.00,,CLR,0.00,VWS V14.01,2013-07-02 01:09:00,
2013-07-01 18:14:00,101.7,62.5,29.94,East,80,0.0,0.0,28,0.00,,CLR,0.00,VWS V14.01,2013-07-02 01:14:00,
2013-07-01 18:19:00,102.0,63.8,29.93,East,80,0.0,0.0,29,0.00,,CLR,0.00,VWS V14.01,2013-07-02 01:19:00,
2013-07-01 18:24:00,101.7,63.5,29.93,East,80,0.0,0.0,29,0.00,,CLR,0.00,VWS V14.01,2013-07-02 01:24:00,
2013-07-01 18:29:00,101.4,63.3,29.93,East,80,0.0,0.0,29,0.00,,CLR,0.00,VWS V14.01,2013-07-02 01:29:00,
2013-07-01 18:34:00,100.4,62.4,29.93,East,80,0.0,0.0,29,0.00,,CLR,0.00,VWS V14.01,2013-07-02 01:34:00,
2013-07-01 18:39:00,99.5,63.5,29.93,East,80,0.0,0.0,31,0.00,,CLR,0.00,VWS V14.01,2013-07-02 01:39:00,
2013-07-01 18:44:00,98.1,62.3,29.93,East,80,0.0,0.0,31,0.00,,CLR,0.00,VWS V14.01,2013-07-02 01:44:00,
2013-07-01 18:50:00,97.6,64.5,29.93,East,80,0.0,0.0,34,0.00,,CLR,0.00,VWS V14.01,2013-07-02 01:50:00,
2013-07-01 18:55:00,96.6,64.5,29.93,East,80,0.0,0.0,35,0.00,,CLR,0.00,VWS V14.01,2013-07-02 01:55:00,
2013-07-01 19:00:00,96.1,64.0,29.93,East,80,0.0,0.0,35,0.00,,CLR,0.00,VWS V14.01,2013-07-02 02:00:00,
2013-07-01 19:05:00,96.1,64.0,29.93,East,80,0.0,0.0,35,0.00,,CLR,0.00,VWS V14.01,2013-07-02 02:05:00,
2013-07-01 19:10:00,94.4,62.5,29.93,East,80,0.0,0.0,35,0.00,,CLR,0.00,VWS V14.01,2013-07-02 02:10:00,
2013-07-01 19:15:00,94.4,62.5,29.93,East,80,0.0,0.0,35,0.00,,CLR,0.00,VWS V14.01,2013-07-02 02:15:00,
2013-07-01 19:20:00,94.4,67.8,29.93,East,80,0.0,0.0,42,0.00,,CLR,0.00,VWS V14.01,2013-07-02 02:20:00,
2013-07-01 19:25:00,90.9,64.7,29.93,East,80,0.0,0.0,42,0.00,,CLR,0.00,VWS V14.01,2013-07-02 02:25:00,
2013-07-01 19:30:00,90.0,63.8,29.93,East,80,0.0,0.0,42,0.00,,CLR,0.00,VWS V14.01,2013-07-02 02:30:00,
2013-07-01 19:35:00,89.4,63.3,29.93,East,80,0.0,0.0,42,0.00,,CLR,0.00,VWS V14.01,2013-07-02 02:35:00,
2013-07-01 19:41:00,89.2,63.1,29.93,East,80,0.0,0.0,42,0.00,,CLR,0.00,VWS V14.01,2013-07-02 02:41:00,
2013-07-01 19:46:00,87.7,61.8,29.93,East,80,0.0,0.0,42,0.00,,CLR,0.00,VWS V14.01,2013-07-02 02:46:00,
2013-07-01 19:51:00,87.1,61.2,29.93,East,80,0.0,0.0,42,0.00,,CLR,0.00,VWS V14.01,2013-07-02 02:51:00,
2013-07-01 19:56:00,86.5,60.7,29.93,East,80,0.0,0.0,42,0.00,,CLR,0.00,VWS V14.01,2013-07-02 02:56:00,
2013-07-01 20:01:00,86.5,60.7,29.93,East,80,0.0,0.0,42,0.00,,CLR,0.00,VWS V14.01,2013-07-02 03:01:00,
2013-07-01 20:06:00,85.7,60.0,29.93,East,80,0.0,0.0,42,0.00,,CLR,0.00,VWS V14.01,2013-07-02 03:06:00,
2013-07-01 20:11:00,85.7,60.0,29.93,East,80,0.0,0.0,42,0.00,,CLR,0.00,VWS V14.01,2013-07-02 03:11:00,
2013-07-01 20:16:00,85.1,65.5,29.93,East,80,0.0,0.0,52,0.00,,CLR,0.00,VWS V14.01,2013-07-02 03:16:00,
2013-07-01 20:21:00,85.1,67.7,29.93,East,80,0.0,0.0,56,0.00,,CLR,0.00,VWS V14.01,2013-07-02 03:21:00,
2013-07-01 20:26:00,83.6,67.3,29.93,East,80,0.0,0.0,58,0.00,,CLR,0.00,VWS V14.01,2013-07-02 03:26:00,
2013-07-01 20:31:00,83.4,67.1,29.93,East,80,0.0,0.0,58,0.00,,CLR,0.00,VWS V14.01,2013-07-02 03:31:00,
2013-07-01 20:37:00,83.0,66.7,29.93,East,80,0.0,0.0,58,0.00,,CLR,0.00,VWS V14.01,2013-07-02 03:37:00,
2013-07-01 20:42:00,82.6,66.3,29.93,East,80,0.0,0.0,58,0.00,,CLR,0.00,VWS V14.01,2013-07-02 03:42:00,
2013-07-01 20:47:00,82.1,65.9,29.93,East,80,0.0,0.0,58,0.00,,CLR,0.00,VWS V14.01,2013-07-02 03:47:00,
2013-07-01 20:52:00,82.1,66.8,29.93,East,80,0.0,0.0,60,0.00,,CLR,0.00,VWS V14.01,2013-07-02 03:52:00,
2013-07-01 20:57:00,81.1,65.9,29.93,East,80,0.0,0.0,60,0.00,,CLR,0.00,VWS V14.01,2013-07-02 03:57:00,
2013-07-01 21:01:00,80.8,65.6,29.93,East,80,0.0,0.0,60,0.00,,CLR,0.00,VWS V14.01,2013-07-02 04:01:00,
2013-07-01 21:02:00,80.8,65.6,29.93,East,80,0.0,0.0,60,0.00,,CLR,0.00,VWS V14.01,2013-07-02 04:02:00,
2013-07-01 21:07:00,80.4,65.3,29.93,East,80,0.0,0.0,60,0.00,,CLR,0.00,VWS V14.01,2013-07-02 04:07:00,
2013-07-01 21:12:00,80.2,65.1,29.93,East,80,0.0,0.0,60,0.00,,CLR,0.00,VWS V14.01,2013-07-02 04:12:00,
2013-07-01 21:17:00,79.8,64.7,29.93,East,80,0.0,0.0,60,0.00,,CLR,0.00,VWS V14.01,2013-07-02 04:17:00,
2013-07-01 21:22:00,79.3,64.2,29.93,East,80,0.0,0.0,60,0.00,,CLR,0.00,VWS V14.01,2013-07-02 04:22:00,
2013-07-01 21:27:00,78.9,66.2,29.93,East,80,0.0,0.0,65,0.00,,CLR,0.00,VWS V14.01,2013-07-02 04:27:00,
2013-07-01 21:32:00,78.6,66.3,29.94,East,80,0.0,0.0,66,0.00,,CLR,0.00,VWS V14.01,2013-07-02 04:32:00,
2013-07-01 21:37:00,78.2,65.9,29.94,East,80,0.0,0.0,66,0.00,,CLR,0.00,VWS V14.01,2013-07-02 04:37:00,
2013-07-01 21:42:00,78.0,65.3,29.94,East,80,0.0,0.0,65,0.00,,CLR,0.00,VWS V14.01,2013-07-02 04:42:00,
2013-07-01 21:48:00,77.7,65.0,29.94,East,80,0.0,0.0,65,0.00,,CLR,0.00,VWS V14.01,2013-07-02 04:48:00,
2013-07-01 21:53:00,77.1,65.7,29.94,East,80,0.0,0.0,68,0.00,,CLR,0.00,VWS V14.01,2013-07-02 04:53:00,
2013-07-01 21:58:00,77.1,65.7,29.94,East,80,0.0,0.0,68,0.00,,CLR,0.00,VWS V14.01,2013-07-02 04:58:00,
2013-07-01 22:03:00,76.1,66.4,29.94,East,80,0.0,0.0,72,0.00,,CLR,0.00,VWS V14.01,2013-07-02 05:03:00,
2013-07-01 22:08:00,75.9,66.2,29.94,East,80,0.0,0.0,72,0.00,,CLR,0.00,VWS V14.01,2013-07-02 05:08:00,
2013-07-01 22:13:00,75.4,65.8,29.94,East,80,0.0,0.0,72,0.00,,CLR,0.00,VWS V14.01,2013-07-02 05:13:00,
2013-07-01 22:18:00,75.0,65.4,29.94,East,80,0.0,0.0,72,0.00,,CLR,0.00,VWS V14.01,2013-07-02 05:18:00,
2013-07-01 22:23:00,74.9,65.3,29.94,East,80,0.0,0.0,72,0.00,,CLR,0.00,VWS V14.01,2013-07-02 05:23:00,
2013-07-01 22:28:00,74.7,65.1,29.94,East,80,0.0,0.0,72,0.00,,CLR,0.00,VWS V14.01,2013-07-02 05:28:00,
2013-07-01 22:33:00,74.7,65.1,29.94,East,80,0.0,0.0,72,0.00,,CLR,0.00,VWS V14.01,2013-07-02 05:33:00,
2013-07-01 22:39:00,74.5,64.9,29.94,East,80,0.0,0.0,72,0.00,,CLR,0.00,VWS V14.01,2013-07-02 05:39:00,
2013-07-01 22:44:00,74.5,64.1,29.94,East,80,0.0,0.0,70,0.00,,CLR,0.00,VWS V14.01,2013-07-02 05:44:00,
2013-07-01 22:49:00,74.5,63.7,29.94,East,80,0.0,0.0,69,0.00,,CLR,0.00,VWS V14.01,2013-07-02 05:49:00,
2013-07-01 22:54:00,74.7,64.7,29.94,East,80,0.0,0.0,71,0.00,,CLR,0.00,VWS V14.01,2013-07-02 05:54:00,
2013-07-01 22:59:00,74.7,64.7,29.94,East,80,0.0,0.0,71,0.00,,CLR,0.00,VWS V14.01,2013-07-02 05:59:00,
2013-07-01 23:04:00,74.7,63.5,29.94,East,80,0.0,0.0,68,0.00,,CLR,0.00,VWS V14.01,2013-07-02 06:04:00,
2013-07-01 23:09:00,74.3,63.1,29.94,East,80,0.0,0.0,68,0.00,,CLR,0.00,VWS V14.01,2013-07-02 06:09:00,
2013-07-01 23:14:00,74.2,63.0,29.94,East,80,0.0,0.0,68,0.00,,CLR,0.00,VWS V14.01,2013-07-02 06:14:00,
2013-07-01 23:19:00,74.0,63.2,29.94,East,80,0.0,0.0,69,0.00,,CLR,0.00,VWS V14.01,2013-07-02 06:19:00,
2013-07-01 23:24:00,74.0,63.2,29.94,East,80,0.0,0.0,69,0.00,,CLR,0.00,VWS V14.01,2013-07-02 06:24:00,
2013-07-01 23:30:00,74.0,63.2,29.94,East,80,0.0,0.0,69,0.00,,CLR,0.00,VWS V14.01,2013-07-02 06:30:00,
2013-07-01 23:35:00,74.2,63.4,29.94,East,80,0.0,0.0,69,0.00,,CLR,0.00,VWS V14.01,2013-07-02 06:35:00,
2013-07-01 23:40:00,74.2,63.4,29.94,East,80,0.0,0.0,69,0.00,,CLR,0.00,VWS V14.01,2013-07-02 06:40:00,
2013-07-01 23:45:00,74.3,63.5,29.94,East,80,0.0,0.0,69,0.00,,CLR,0.00,VWS V14.01,2013-07-02 06:45:00,
2013-07-01 23:50:00,74.3,63.5,29.94,East,80,0.0,0.0,69,0.00,,CLR,0.00,VWS V14.01,2013-07-02 06:50:00,
2013-07-01 23:55:00,74.3,63.5,29.94,East,80,0.0,0.0,69,0.00,,CLR,0.00,VWS V14.01,2013-07-02 06:55:00,